sensor_id;sensor_type;location;lat;lon;timestamp;pressure;altitude;pressure_sealevel;temperature;humidity
59055;BME280;44845;51.444;7.460;2022-12-16T00:00:36;99109.38;;;-2.98;69.96
59055;BME280;44845;51.444;7.460;2022-12-16T00:03:01;99109.50;;;-2.95;69.59
59055;BME280;44845;51.444;7.460;2022-12-16T00:05:28;99106.94;;;-2.95;68.32
59055;BME280;44845;51.444;7.460;2022-12-16T00:07:53;99111.19;;;-2.96;68.69
59055;BME280;44845;51.444;7.460;2022-12-16T00:10:20;99106.81;;;-2.98;69.20
59055;BME280;44845;51.444;7.460;2022-12-16T00:12:45;99105.97;;;-2.97;69.23
59055;BME280;44845;51.444;7.460;2022-12-16T00:15:10;99105.38;;;-2.90;69.01
59055;BME280;44845;51.444;7.460;2022-12-16T00:17:36;99108.97;;;-2.85;68.24
59055;BME280;44845;51.444;7.460;2022-12-16T00:20:02;99108.66;;;-2.94;68.17
59055;BME280;44845;51.444;7.460;2022-12-16T00:22:28;99103.41;;;-2.97;68.65
59055;BME280;44845;51.444;7.460;2022-12-16T00:24:53;99100.84;;;-2.97;68.00
59055;BME280;44845;51.444;7.460;2022-12-16T00:27:18;99102.41;;;-3.02;68.27
59055;BME280;44845;51.444;7.460;2022-12-16T00:29:44;99102.56;;;-2.98;68.09
59055;BME280;44845;51.444;7.460;2022-12-16T00:32:09;99097.44;;;-2.98;68.32
59055;BME280;44845;51.444;7.460;2022-12-16T00:34:34;99102.50;;;-2.99;69.05
59055;BME280;44845;51.444;7.460;2022-12-16T00:37:00;99102.66;;;-2.95;70.04
59055;BME280;44845;51.444;7.460;2022-12-16T00:39:25;99105.38;;;-2.90;69.84
59055;BME280;44845;51.444;7.460;2022-12-16T00:41:51;99106.53;;;-2.81;69.30
59055;BME280;44845;51.444;7.460;2022-12-16T00:44:16;99103.94;;;-2.81;67.51
59055;BME280;44845;51.444;7.460;2022-12-16T00:46:41;99109.03;;;-2.83;67.73
59055;BME280;44845;51.444;7.460;2022-12-16T00:49:07;99106.84;;;-2.97;68.15
59055;BME280;44845;51.444;7.460;2022-12-16T00:51:32;99113.91;;;-2.91;67.54
59055;BME280;44845;51.444;7.460;2022-12-16T00:53:58;99114.72;;;-2.92;67.13
59055;BME280;44845;51.444;7.460;2022-12-16T00:56:23;99113.59;;;-3.00;67.22
59055;BME280;44845;51.444;7.460;2022-12-16T00:58:49;99110.78;;;-3.07;67.50
59055;BME280;44845;51.444;7.460;2022-12-16T01:01:14;99103.78;;;-3.12;67.50
59055;BME280;44845;51.444;7.460;2022-12-16T01:03:40;99105.06;;;-3.24;67.89
59055;BME280;44845;51.444;7.460;2022-12-16T01:06:10;99102.78;;;-3.16;68.03
59055;BME280;44845;51.444;7.460;2022-12-16T01:08:36;99115.47;;;-3.19;67.88
59055;BME280;44845;51.444;7.460;2022-12-16T01:11:01;99115.56;;;-3.18;67.92
59055;BME280;44845;51.444;7.460;2022-12-16T01:13:26;99115.41;;;-3.22;68.00
59055;BME280;44845;51.444;7.460;2022-12-16T01:15:52;99116.19;;;-3.23;67.67
59055;BME280;44845;51.444;7.460;2022-12-16T01:18:18;99116.16;;;-3.25;67.83
59055;BME280;44845;51.444;7.460;2022-12-16T01:20:43;99129.63;;;-3.31;67.83
59055;BME280;44845;51.444;7.460;2022-12-16T01:23:09;99127.16;;;-3.28;67.26
59055;BME280;44845;51.444;7.460;2022-12-16T01:25:34;99128.28;;;-3.44;67.51
59055;BME280;44845;51.444;7.460;2022-12-16T01:28:00;99136.25;;;-3.36;67.40
59055;BME280;44845;51.444;7.460;2022-12-16T01:30:27;99127.66;;;-3.38;67.54
59055;BME280;44845;51.444;7.460;2022-12-16T01:32:52;99131.84;;;-3.40;67.77
59055;BME280;44845;51.444;7.460;2022-12-16T01:35:17;99136.06;;;-3.42;67.36
59055;BME280;44845;51.444;7.460;2022-12-16T01:37:43;99132.31;;;-3.51;67.69
59055;BME280;44845;51.444;7.460;2022-12-16T01:40:16;99139.19;;;-3.49;67.71
59055;BME280;44845;51.444;7.460;2022-12-16T01:42:43;99136.63;;;-3.49;67.35
59055;BME280;44845;51.444;7.460;2022-12-16T01:47:50;99137.44;;;-3.51;67.83
59055;BME280;44845;51.444;7.460;2022-12-16T01:50:16;99143.63;;;-3.45;67.46
59055;BME280;44845;51.444;7.460;2022-12-16T01:52:45;99142.91;;;-3.41;67.11
59055;BME280;44845;51.444;7.460;2022-12-16T01:55:17;99147.94;;;-3.44;67.51
59055;BME280;44845;51.444;7.460;2022-12-16T01:57:55;99137.56;;;-3.47;67.59
59055;BME280;44845;51.444;7.460;2022-12-16T02:00:23;99141.19;;;-3.42;67.91
59055;BME280;44845;51.444;7.460;2022-12-16T02:02:50;99131.72;;;-3.43;67.79
59055;BME280;44845;51.444;7.460;2022-12-16T02:05:15;99131.69;;;-3.45;67.62
59055;BME280;44845;51.444;7.460;2022-12-16T02:13:20;99136.13;;;-3.39;66.56
59055;BME280;44845;51.444;7.460;2022-12-16T02:21:10;99144.41;;;-3.46;66.79
59055;BME280;44845;51.444;7.460;2022-12-16T02:24:21;99143.50;;;-3.48;66.66
59055;BME280;44845;51.444;7.460;2022-12-16T02:27:16;99139.06;;;-3.53;66.82
59055;BME280;44845;51.444;7.460;2022-12-16T02:32:33;99145.84;;;-3.55;68.03
59055;BME280;44845;51.444;7.460;2022-12-16T02:35:14;99142.69;;;-3.47;68.45
59055;BME280;44845;51.444;7.460;2022-12-16T02:43:16;99144.88;;;-3.34;67.03
59055;BME280;44845;51.444;7.460;2022-12-16T02:45:44;99149.91;;;-3.37;66.95
59055;BME280;44845;51.444;7.460;2022-12-16T02:48:10;99146.31;;;-3.42;66.61
59055;BME280;44845;51.444;7.460;2022-12-16T02:50:41;99151.53;;;-3.39;66.90
59055;BME280;44845;51.444;7.460;2022-12-16T02:53:08;99150.69;;;-3.40;66.17
59055;BME280;44845;51.444;7.460;2022-12-16T02:55:46;99150.59;;;-3.41;66.07
59055;BME280;44845;51.444;7.460;2022-12-16T02:58:19;99147.88;;;-3.46;66.78
59055;BME280;44845;51.444;7.460;2022-12-16T03:01:12;99149.47;;;-3.49;67.66
59055;BME280;44845;51.444;7.460;2022-12-16T03:03:46;99157.94;;;-3.51;68.49
59055;BME280;44845;51.444;7.460;2022-12-16T03:06:16;99155.69;;;-3.43;66.70
59055;BME280;44845;51.444;7.460;2022-12-16T03:08:47;99153.13;;;-3.43;66.29
59055;BME280;44845;51.444;7.460;2022-12-16T03:11:15;99146.31;;;-3.42;66.18
59055;BME280;44845;51.444;7.460;2022-12-16T03:13:44;99151.09;;;-3.52;66.71
59055;BME280;44845;51.444;7.460;2022-12-16T03:16:13;99147.81;;;-3.47;66.90
59055;BME280;44845;51.444;7.460;2022-12-16T03:18:44;99146.94;;;-3.48;66.46
59055;BME280;44845;51.444;7.460;2022-12-16T03:21:13;99150.31;;;-3.49;65.86
59055;BME280;44845;51.444;7.460;2022-12-16T03:23:44;99145.97;;;-3.52;66.42
59055;BME280;44845;51.444;7.460;2022-12-16T03:26:19;99149.78;;;-3.63;67.00
59055;BME280;44845;51.444;7.460;2022-12-16T03:29:00;99155.97;;;-3.58;66.63
59055;BME280;44845;51.444;7.460;2022-12-16T03:31:39;99150.72;;;-3.61;66.42
59055;BME280;44845;51.444;7.460;2022-12-16T03:34:21;99152.34;;;-3.63;65.99
59055;BME280;44845;51.444;7.460;2022-12-16T03:36:52;99149.69;;;-3.66;65.76
59055;BME280;44845;51.444;7.460;2022-12-16T03:39:20;99147.22;;;-3.63;65.82
59055;BME280;44845;51.444;7.460;2022-12-16T03:41:50;99149.63;;;-3.68;65.98
59055;BME280;44845;51.444;7.460;2022-12-16T03:44:20;99152.94;;;-3.70;65.82
59055;BME280;44845;51.444;7.460;2022-12-16T03:46:47;99152.63;;;-3.78;66.07
59055;BME280;44845;51.444;7.460;2022-12-16T03:49:12;99157.72;;;-3.80;66.18
59055;BME280;44845;51.444;7.460;2022-12-16T03:51:38;99162.78;;;-3.81;66.28
59055;BME280;44845;51.444;7.460;2022-12-16T03:54:03;99162.09;;;-3.77;66.10
59055;BME280;44845;51.444;7.460;2022-12-16T03:56:28;99166.91;;;-3.85;66.94
59055;BME280;44845;51.444;7.460;2022-12-16T03:58:54;99168.75;;;-3.81;66.29
59055;BME280;44845;51.444;7.460;2022-12-16T04:01:19;99171.44;;;-3.78;65.72
59055;BME280;44845;51.444;7.460;2022-12-16T04:03:44;99172.84;;;-3.86;66.50
59055;BME280;44845;51.444;7.460;2022-12-16T04:06:10;99161.91;;;-3.82;66.65
59055;BME280;44845;51.444;7.460;2022-12-16T04:08:35;99168.22;;;-3.74;66.54
59055;BME280;44845;51.444;7.460;2022-12-16T04:11:00;99163.91;;;-3.75;66.02
59055;BME280;44845;51.444;7.460;2022-12-16T04:13:44;99169.00;;;-3.75;65.86
59055;BME280;44845;51.444;7.460;2022-12-16T04:16:28;99161.19;;;-3.78;65.87
59055;BME280;44845;51.444;7.460;2022-12-16T04:19:23;99167.22;;;-3.77;65.67
59055;BME280;44845;51.444;7.460;2022-12-16T04:22:12;99161.28;;;-3.76;66.46
59055;BME280;44845;51.444;7.460;2022-12-16T04:25:09;99170.13;;;-3.68;65.89
59055;BME280;44845;51.444;7.460;2022-12-16T04:27:36;99180.03;;;-3.77;65.58
59055;BME280;44845;51.444;7.460;2022-12-16T04:30:02;99175.66;;;-3.80;66.36
59055;BME280;44845;51.444;7.460;2022-12-16T04:32:43;99187.66;;;-3.79;66.03
59055;BME280;44845;51.444;7.460;2022-12-16T04:35:27;99192.59;;;-3.83;66.44
59055;BME280;44845;51.444;7.460;2022-12-16T04:38:11;99193.94;;;-3.70;66.62
59055;BME280;44845;51.444;7.460;2022-12-16T04:40:54;99194.66;;;-3.75;67.30
59055;BME280;44845;51.444;7.460;2022-12-16T04:43:38;99198.31;;;-3.68;67.44
59055;BME280;44845;51.444;7.460;2022-12-16T04:46:22;99200.00;;;-3.68;66.45
59055;BME280;44845;51.444;7.460;2022-12-16T04:49:06;99202.50;;;-3.70;66.93
59055;BME280;44845;51.444;7.460;2022-12-16T04:51:50;99204.38;;;-3.66;66.62
59055;BME280;44845;51.444;7.460;2022-12-16T04:54:34;99210.97;;;-3.73;66.39
59055;BME280;44845;51.444;7.460;2022-12-16T04:57:17;99213.28;;;-3.79;66.63
59055;BME280;44845;51.444;7.460;2022-12-16T05:00:02;99209.00;;;-3.78;67.21
59055;BME280;44845;51.444;7.460;2022-12-16T05:02:51;99216.91;;;-3.74;66.71
59055;BME280;44845;51.444;7.460;2022-12-16T05:05:35;99218.28;;;-3.82;67.03
59055;BME280;44845;51.444;7.460;2022-12-16T05:08:19;99220.97;;;-3.79;67.41
59055;BME280;44845;51.444;7.460;2022-12-16T05:11:03;99224.38;;;-3.78;66.26
59055;BME280;44845;51.444;7.460;2022-12-16T05:13:47;99224.28;;;-3.81;66.47
59055;BME280;44845;51.444;7.460;2022-12-16T05:16:30;99225.78;;;-3.87;66.61
59055;BME280;44845;51.444;7.460;2022-12-16T05:19:14;99230.78;;;-3.90;66.71
59055;BME280;44845;51.444;7.460;2022-12-16T05:21:58;99228.28;;;-3.88;67.01
59055;BME280;44845;51.444;7.460;2022-12-16T05:24:42;99230.59;;;-3.94;66.86
59055;BME280;44845;51.444;7.460;2022-12-16T05:27:25;99230.66;;;-3.93;67.12
59055;BME280;44845;51.444;7.460;2022-12-16T05:30:09;99231.41;;;-3.96;66.58
59055;BME280;44845;51.444;7.460;2022-12-16T05:32:53;99233.03;;;-3.98;67.00
59055;BME280;44845;51.444;7.460;2022-12-16T05:35:37;99232.34;;;-3.93;66.61
59055;BME280;44845;51.444;7.460;2022-12-16T05:38:21;99241.78;;;-3.92;66.52
59055;BME280;44845;51.444;7.460;2022-12-16T05:41:05;99243.41;;;-3.94;66.31
59055;BME280;44845;51.444;7.460;2022-12-16T05:43:49;99245.97;;;-3.94;66.92
59055;BME280;44845;51.444;7.460;2022-12-16T05:46:32;99250.16;;;-3.97;66.91
59055;BME280;44845;51.444;7.460;2022-12-16T05:49:16;99258.66;;;-3.98;66.86
59055;BME280;44845;51.444;7.460;2022-12-16T05:52:00;99254.41;;;-3.97;66.99
59055;BME280;44845;51.444;7.460;2022-12-16T05:54:44;99263.91;;;-3.94;66.26
59055;BME280;44845;51.444;7.460;2022-12-16T05:57:28;99254.53;;;-3.94;66.35
59055;BME280;44845;51.444;7.460;2022-12-16T06:00:12;99266.53;;;-3.93;66.41
59055;BME280;44845;51.444;7.460;2022-12-16T06:02:56;99274.16;;;-3.94;66.30
59055;BME280;44845;51.444;7.460;2022-12-16T06:05:40;99288.91;;;-3.89;66.02
59055;BME280;44845;51.444;7.460;2022-12-16T06:08:24;99288.59;;;-3.97;66.95
59055;BME280;44845;51.444;7.460;2022-12-16T06:11:07;99299.34;;;-3.84;66.63
59055;BME280;44845;51.444;7.460;2022-12-16T06:13:51;99309.72;;;-3.81;66.00
59055;BME280;44845;51.444;7.460;2022-12-16T06:16:35;99313.84;;;-3.85;65.29
59055;BME280;44845;51.444;7.460;2022-12-16T06:19:19;99311.28;;;-3.85;65.76
59055;BME280;44845;51.444;7.460;2022-12-16T06:22:02;99312.19;;;-3.84;65.57
59055;BME280;44845;51.444;7.460;2022-12-16T06:24:46;99310.16;;;-3.91;65.75
59055;BME280;44845;51.444;7.460;2022-12-16T06:27:30;99317.03;;;-3.90;65.96
59055;BME280;44845;51.444;7.460;2022-12-16T06:30:13;99316.63;;;-4.00;66.38
59055;BME280;44845;51.444;7.460;2022-12-16T06:32:58;99322.16;;;-3.90;65.95
59055;BME280;44845;51.444;7.460;2022-12-16T06:35:42;99320.13;;;-3.98;66.31
59055;BME280;44845;51.444;7.460;2022-12-16T06:38:26;99323.38;;;-4.02;66.47
59055;BME280;44845;51.444;7.460;2022-12-16T06:41:09;99325.91;;;-4.03;66.56
59055;BME280;44845;51.444;7.460;2022-12-16T06:43:53;99334.97;;;-4.10;66.82
59055;BME280;44845;51.444;7.460;2022-12-16T06:46:37;99335.13;;;-4.07;66.13
59055;BME280;44845;51.444;7.460;2022-12-16T06:49:20;99349.69;;;-4.06;65.83
59055;BME280;44845;51.444;7.460;2022-12-16T06:52:04;99352.25;;;-4.06;66.39
59055;BME280;44845;51.444;7.460;2022-12-16T06:54:48;99356.44;;;-4.08;65.86
59055;BME280;44845;51.444;7.460;2022-12-16T06:57:32;99358.56;;;-4.18;66.11
59055;BME280;44845;51.444;7.460;2022-12-16T07:00:16;99372.56;;;-4.11;66.45
59055;BME280;44845;51.444;7.460;2022-12-16T07:03:00;99369.09;;;-4.11;66.36
59055;BME280;44845;51.444;7.460;2022-12-16T07:05:44;99374.97;;;-4.14;66.24
59055;BME280;44845;51.444;7.460;2022-12-16T07:08:28;99377.59;;;-4.12;66.16
59055;BME280;44845;51.444;7.460;2022-12-16T07:11:11;99380.97;;;-4.13;67.31
59055;BME280;44845;51.444;7.460;2022-12-16T07:13:55;99382.84;;;-4.09;66.78
59055;BME280;44845;51.444;7.460;2022-12-16T07:16:39;99379.50;;;-4.08;66.41
59055;BME280;44845;51.444;7.460;2022-12-16T07:19:22;99383.59;;;-4.12;67.37
59055;BME280;44845;51.444;7.460;2022-12-16T07:22:06;99392.41;;;-4.05;66.64
59055;BME280;44845;51.444;7.460;2022-12-16T07:24:50;99390.53;;;-4.09;66.27
59055;BME280;44845;51.444;7.460;2022-12-16T07:27:34;99403.50;;;-4.06;67.35
59055;BME280;44845;51.444;7.460;2022-12-16T07:30:17;99401.59;;;-4.10;67.08
59055;BME280;44845;51.444;7.460;2022-12-16T07:33:01;99416.16;;;-4.09;66.94
59055;BME280;44845;51.444;7.460;2022-12-16T07:35:45;99418.03;;;-4.05;67.36
59055;BME280;44845;51.444;7.460;2022-12-16T07:38:29;99418.38;;;-3.97;66.94
59055;BME280;44845;51.444;7.460;2022-12-16T07:41:13;99422.78;;;-3.94;66.51
59055;BME280;44845;51.444;7.460;2022-12-16T07:43:56;99438.00;;;-3.98;66.50
59055;BME280;44845;51.444;7.460;2022-12-16T07:46:40;99437.22;;;-3.97;66.35
59055;BME280;44845;51.444;7.460;2022-12-16T07:49:24;99442.13;;;-4.01;66.95
59055;BME280;44845;51.444;7.460;2022-12-16T07:52:08;99447.59;;;-3.93;66.28
59055;BME280;44845;51.444;7.460;2022-12-16T07:54:51;99451.63;;;-3.99;67.03
59055;BME280;44845;51.444;7.460;2022-12-16T07:57:40;99448.25;;;-3.98;66.88
59055;BME280;44845;51.444;7.460;2022-12-16T08:00:24;99451.50;;;-4.02;66.97
59055;BME280;44845;51.444;7.460;2022-12-16T08:03:07;99455.94;;;-3.98;67.04
59055;BME280;44845;51.444;7.460;2022-12-16T08:05:51;99453.66;;;-3.91;67.00
59055;BME280;44845;51.444;7.460;2022-12-16T08:08:35;99462.00;;;-3.96;67.03
59055;BME280;44845;51.444;7.460;2022-12-16T08:11:19;99479.28;;;-3.91;67.01
59055;BME280;44845;51.444;7.460;2022-12-16T08:14:03;99476.59;;;-3.94;67.19
59055;BME280;44845;51.444;7.460;2022-12-16T08:16:47;99474.16;;;-3.91;67.11
59055;BME280;44845;51.444;7.460;2022-12-16T08:19:30;99484.25;;;-3.94;67.18
59055;BME280;44845;51.444;7.460;2022-12-16T08:22:14;99486.03;;;-3.93;67.53
59055;BME280;44845;51.444;7.460;2022-12-16T08:24:58;99494.66;;;-3.91;67.77
59055;BME280;44845;51.444;7.460;2022-12-16T08:27:42;99490.47;;;-3.89;67.48
59055;BME280;44845;51.444;7.460;2022-12-16T08:30:26;99492.16;;;-3.90;67.46
59055;BME280;44845;51.444;7.460;2022-12-16T08:33:10;99494.66;;;-3.91;67.53
59055;BME280;44845;51.444;7.460;2022-12-16T08:35:56;99494.66;;;-3.91;67.96
59055;BME280;44845;51.444;7.460;2022-12-16T08:38:41;99494.94;;;-3.85;67.60
59055;BME280;44845;51.444;7.460;2022-12-16T08:41:24;99508.69;;;-3.83;67.96
59055;BME280;44845;51.444;7.460;2022-12-16T08:44:08;99496.06;;;-3.78;67.91
59055;BME280;44845;51.444;7.460;2022-12-16T08:46:52;99503.31;;;-3.69;68.10
59055;BME280;44845;51.444;7.460;2022-12-16T08:49:36;99508.34;;;-3.71;67.54
59055;BME280;44845;51.444;7.460;2022-12-16T08:52:20;99509.38;;;-3.67;67.64
59055;BME280;44845;51.444;7.460;2022-12-16T08:55:04;99511.25;;;-3.63;67.95
59055;BME280;44845;51.444;7.460;2022-12-16T08:57:53;99509.56;;;-3.63;68.23
59055;BME280;44845;51.444;7.460;2022-12-16T09:00:36;99507.97;;;-3.60;68.44
59055;BME280;44845;51.444;7.460;2022-12-16T09:03:20;99507.22;;;-3.58;68.18
59055;BME280;44845;51.444;7.460;2022-12-16T09:06:04;99514.91;;;-3.58;68.77
59055;BME280;44845;51.444;7.460;2022-12-16T09:08:48;99516.78;;;-3.54;68.62
59055;BME280;44845;51.444;7.460;2022-12-16T09:11:32;99515.31;;;-3.48;68.67
59055;BME280;44845;51.444;7.460;2022-12-16T09:14:16;99531.72;;;-3.45;69.12
59055;BME280;44845;51.444;7.460;2022-12-16T09:17:00;99518.06;;;-3.44;68.82
59055;BME280;44845;51.444;7.460;2022-12-16T09:19:44;99524.38;;;-3.37;68.50
59055;BME280;44845;51.444;7.460;2022-12-16T09:22:28;99530.53;;;-3.32;69.14
59055;BME280;44845;51.444;7.460;2022-12-16T09:25:11;99534.88;;;-3.31;69.46
59055;BME280;44845;51.444;7.460;2022-12-16T09:27:56;99539.47;;;-3.23;69.04
59055;BME280;44845;51.444;7.460;2022-12-16T09:30:40;99541.22;;;-3.22;69.08
59055;BME280;44845;51.444;7.460;2022-12-16T09:33:23;99545.81;;;-3.15;69.50
59055;BME280;44845;51.444;7.460;2022-12-16T09:36:07;99539.19;;;-3.10;69.19
59055;BME280;44845;51.444;7.460;2022-12-16T09:38:51;99544.56;;;-3.03;69.79
59055;BME280;44845;51.444;7.460;2022-12-16T09:41:43;99557.59;;;-2.99;70.37
59055;BME280;44845;51.444;7.460;2022-12-16T09:44:37;99554.13;;;-2.99;70.56
59055;BME280;44845;51.444;7.460;2022-12-16T09:50:33;99549.63;;;-2.85;70.90
59055;BME280;44845;51.444;7.460;2022-12-16T09:53:21;99556.75;;;-2.78;71.51
59055;BME280;44845;51.444;7.460;2022-12-16T09:56:15;99562.94;;;-2.73;71.91
59055;BME280;44845;51.444;7.460;2022-12-16T09:59:04;99562.19;;;-2.70;72.23
59055;BME280;44845;51.444;7.460;2022-12-16T10:01:49;99563.38;;;-2.62;72.70
59055;BME280;44845;51.444;7.460;2022-12-16T10:04:33;99567.81;;;-2.57;73.51
59055;BME280;44845;51.444;7.460;2022-12-16T10:07:19;99565.63;;;-2.48;74.08
59055;BME280;44845;51.444;7.460;2022-12-16T10:16:44;99569.31;;;-2.20;74.12
59055;BME280;44845;51.444;7.460;2022-12-16T10:22:50;99580.00;;;-2.09;74.39
59055;BME280;44845;51.444;7.460;2022-12-16T10:26:05;99581.13;;;-2.02;74.86
59055;BME280;44845;51.444;7.460;2022-12-16T10:28:48;99589.13;;;-1.94;74.77
59055;BME280;44845;51.444;7.460;2022-12-16T10:31:36;99579.03;;;-1.89;75.04
59055;BME280;44845;51.444;7.460;2022-12-16T10:34:29;99579.28;;;-1.83;74.58
59055;BME280;44845;51.444;7.460;2022-12-16T10:37:27;99582.00;;;-1.78;74.45
59055;BME280;44845;51.444;7.460;2022-12-16T10:40:17;99585.47;;;-1.78;74.18
59055;BME280;44845;51.444;7.460;2022-12-16T10:43:06;99591.50;;;-1.77;74.32
59055;BME280;44845;51.444;7.460;2022-12-16T10:45:55;99595.97;;;-1.72;74.35
59055;BME280;44845;51.444;7.460;2022-12-16T10:48:40;99593.66;;;-1.65;74.10
59055;BME280;44845;51.444;7.460;2022-12-16T10:51:27;99590.19;;;-1.66;74.15
59055;BME280;44845;51.444;7.460;2022-12-16T10:54:24;99590.25;;;-1.64;74.31
59055;BME280;44845;51.444;7.460;2022-12-16T10:57:19;99592.97;;;-1.60;74.21
59055;BME280;44845;51.444;7.460;2022-12-16T11:00:09;99591.38;;;-1.57;74.21
59055;BME280;44845;51.444;7.460;2022-12-16T11:02:54;99594.91;;;-1.54;74.23
59055;BME280;44845;51.444;7.460;2022-12-16T11:05:38;99594.19;;;-1.50;74.34
59055;BME280;44845;51.444;7.460;2022-12-16T11:11:32;99588.38;;;-1.45;74.45
59055;BME280;44845;51.444;7.460;2022-12-16T11:17:26;99590.22;;;-1.41;74.49
59055;BME280;44845;51.444;7.460;2022-12-16T11:20:25;99593.59;;;-1.42;74.83
59055;BME280;44845;51.444;7.460;2022-12-16T11:23:21;99595.50;;;-1.38;74.70
59055;BME280;44845;51.444;7.460;2022-12-16T11:26:15;99595.59;;;-1.35;74.74
59055;BME280;44845;51.444;7.460;2022-12-16T11:29:08;99590.63;;;-1.30;75.04
59055;BME280;44845;51.444;7.460;2022-12-16T11:31:57;99596.63;;;-1.30;75.29
59055;BME280;44845;51.444;7.460;2022-12-16T11:34:43;99600.97;;;-1.29;75.55
59055;BME280;44845;51.444;7.460;2022-12-16T11:37:30;99603.59;;;-1.27;75.16
59055;BME280;44845;51.444;7.460;2022-12-16T11:40:16;99605.56;;;-1.20;75.20
59055;BME280;44845;51.444;7.460;2022-12-16T11:43:01;99597.91;;;-1.18;75.70
59055;BME280;44845;51.444;7.460;2022-12-16T11:45:48;99598.78;;;-1.18;75.30
59055;BME280;44845;51.444;7.460;2022-12-16T11:48:37;99594.03;;;-1.07;75.69
59055;BME280;44845;51.444;7.460;2022-12-16T11:51:27;99605.03;;;-1.11;75.59
59055;BME280;44845;51.444;7.460;2022-12-16T11:54:24;99603.88;;;-0.95;75.35
59055;BME280;44845;51.444;7.460;2022-12-16T11:57:17;99604.91;;;-0.89;75.02
59055;BME280;44845;51.444;7.460;2022-12-16T12:00:09;99607.53;;;-0.88;75.18
59055;BME280;44845;51.444;7.460;2022-12-16T12:03:05;99604.91;;;-0.89;75.09
59055;BME280;44845;51.444;7.460;2022-12-16T12:06:10;99609.75;;;-0.73;74.70
59055;BME280;44845;51.444;7.460;2022-12-16T12:09:35;99615.19;;;-0.65;74.55
59055;BME280;44845;51.444;7.460;2022-12-16T12:12:56;99619.75;;;-0.56;74.40
59055;BME280;44845;51.444;7.460;2022-12-16T12:16:07;99615.38;;;-0.59;73.69
59055;BME280;44845;51.444;7.460;2022-12-16T12:19:04;99609.75;;;-0.47;74.22
59055;BME280;44845;51.444;7.460;2022-12-16T12:22:10;99618.97;;;-0.53;73.83
59055;BME280;44845;51.444;7.460;2022-12-16T12:27:55;99611.16;;;-0.30;73.27
59055;BME280;44845;51.444;7.460;2022-12-16T12:36:47;99618.44;;;-0.17;72.91
59055;BME280;44845;51.444;7.460;2022-12-16T12:42:36;99625.38;;;-0.16;73.41
59055;BME280;44845;51.444;7.460;2022-12-16T12:52:52;99627.06;;;-0.16;72.84
59055;BME280;44845;51.444;7.460;2022-12-16T12:55:44;99623.88;;;-0.07;72.80
59055;BME280;44845;51.444;7.460;2022-12-16T12:58:32;99622.34;;;-0.02;72.71
59055;BME280;44845;51.444;7.460;2022-12-16T13:01:20;99626.38;;;-0.10;71.90
59055;BME280;44845;51.444;7.460;2022-12-16T13:04:13;99626.47;;;-0.07;72.30
59055;BME280;44845;51.444;7.460;2022-12-16T13:06:59;99624.28;;;0.05;72.15
59055;BME280;44845;51.444;7.460;2022-12-16T13:09:44;99629.53;;;0.08;71.83
59055;BME280;44845;51.444;7.460;2022-12-16T13:12:32;99630.47;;;0.10;72.31
59055;BME280;44845;51.444;7.460;2022-12-16T13:20:47;99646.50;;;0.00;71.46
59055;BME280;44845;51.444;7.460;2022-12-16T13:23:34;99644.72;;;-0.01;72.11
59055;BME280;44845;51.444;7.460;2022-12-16T13:26:20;99643.06;;;0.01;71.71
59055;BME280;44845;51.444;7.460;2022-12-16T13:32:02;99655.31;;;0.08;71.28
59055;BME280;44845;51.444;7.460;2022-12-16T13:35:15;99650.16;;;0.08;72.00
59055;BME280;44845;51.444;7.460;2022-12-16T13:38:05;99659.53;;;0.05;70.55
59055;BME280;44845;51.444;7.460;2022-12-16T13:41:02;99660.69;;;0.15;70.78
59055;BME280;44845;51.444;7.460;2022-12-16T13:43:57;99664.19;;;0.17;69.77
59055;BME280;44845;51.444;7.460;2022-12-16T13:55:28;99681.00;;;0.31;71.01
59055;BME280;44845;51.444;7.460;2022-12-16T13:58:25;99693.66;;;0.25;70.71
59055;BME280;44845;51.444;7.460;2022-12-16T14:01:15;99693.66;;;0.25;71.25
59055;BME280;44845;51.444;7.460;2022-12-16T14:04:01;99697.00;;;0.21;71.62
59055;BME280;44845;51.444;7.460;2022-12-16T14:06:58;99698.66;;;0.19;71.75
59055;BME280;44845;51.444;7.460;2022-12-16T14:09:47;99702.75;;;0.12;71.39
59055;BME280;44845;51.444;7.460;2022-12-16T14:12:37;99701.88;;;0.12;71.92
59055;BME280;44845;51.444;7.460;2022-12-16T14:15:49;99706.91;;;0.08;72.10
59055;BME280;44845;51.444;7.460;2022-12-16T14:18:37;99706.75;;;0.04;72.60
59055;BME280;44845;51.444;7.460;2022-12-16T14:21:29;99719.66;;;0.04;72.57
59055;BME280;44845;51.444;7.460;2022-12-16T14:24:25;99718.69;;;0.00;71.94
59055;BME280;44845;51.444;7.460;2022-12-16T14:27:16;99717.66;;;-0.05;72.50
59055;BME280;44845;51.444;7.460;2022-12-16T14:30:13;99720.13;;;-0.08;72.59
59055;BME280;44845;51.444;7.460;2022-12-16T14:32:58;99727.88;;;-0.08;72.81
59055;BME280;44845;51.444;7.460;2022-12-16T14:35:48;99730.34;;;-0.12;72.67
59055;BME280;44845;51.444;7.460;2022-12-16T14:38:34;99733.75;;;-0.13;73.00
59055;BME280;44845;51.444;7.460;2022-12-16T14:41:20;99735.44;;;-0.13;72.98
59055;BME280;44845;51.444;7.460;2022-12-16T14:44:20;99742.19;;;-0.17;73.06
59055;BME280;44845;51.444;7.460;2022-12-16T14:47:04;99743.03;;;-0.18;72.82
59055;BME280;44845;51.444;7.460;2022-12-16T14:49:51;99743.84;;;-0.19;72.76
59055;BME280;44845;51.444;7.460;2022-12-16T14:52:35;99743.72;;;-0.22;72.82
59055;BME280;44845;51.444;7.460;2022-12-16T14:55:27;99748.88;;;-0.22;72.73
59055;BME280;44845;51.444;7.460;2022-12-16T14:58:13;99752.19;;;-0.26;72.78
59055;BME280;44845;51.444;7.460;2022-12-16T15:01:02;99763.25;;;-0.29;72.80
59055;BME280;44845;51.444;7.460;2022-12-16T15:03:48;99760.53;;;-0.33;72.63
59055;BME280;44845;51.444;7.460;2022-12-16T15:06:39;99767.34;;;-0.36;72.89
59055;BME280;44845;51.444;7.460;2022-12-16T15:09:43;99764.72;;;-0.37;72.61
59055;BME280;44845;51.444;7.460;2022-12-16T15:12:40;99784.38;;;-0.39;72.55
59055;BME280;44845;51.444;7.460;2022-12-16T15:15:34;99783.41;;;-0.43;72.40
59055;BME280;44845;51.444;7.460;2022-12-16T15:18:37;99790.03;;;-0.50;72.73
59055;BME280;44845;51.444;7.460;2022-12-16T15:21:22;99794.34;;;-0.49;72.45
59055;BME280;44845;51.444;7.460;2022-12-16T15:24:24;99799.47;;;-0.50;72.19
59055;BME280;44845;51.444;7.460;2022-12-16T15:27:35;99814.00;;;-0.52;72.23
59055;BME280;44845;51.444;7.460;2022-12-16T15:30:41;99809.66;;;-0.53;72.07
59055;BME280;44845;51.444;7.460;2022-12-16T15:33:36;99811.88;;;-0.63;72.27
59055;BME280;44845;51.444;7.460;2022-12-16T15:36:28;99828.16;;;-0.64;72.08